Terminal Aerodrome Forecast
Issued by NWS Rapid City, SD

Home | Current Version | Previous Version | Graphics & Text | Print | Product List | Glossary On
Versions: 1 2 3 4 5 6 7 8 9 10 11 12 13 14 15 16 17 18 19 20 21 22 23 24 25 26
049
FTUS43 KUNR 271124 AAB
TAFRAP
TAF AMD
KRAP 271124Z 2711/2812 35008KT P6SM SCT030 BKN120
      TEMPO 2712/2716 -TSRA BKN015 BKN080CB
     FM271600 04012KT P6SM SCT060 BKN150
      TEMPO 2722/2724 P6SM -TSRA BKN080CB
     FM280300 12005KT P6SM SCT150=

USA.gov is the U.S. government's official web portal to all federal, state and local government web resources and services.